Waterman — PIMU — position and weather

sailwx.info

Track history (hours):
 
Tides and Currents Weather Stations Pressure Air Temp Water Temp Dewpoint Dewpoint Depression Visibility Wind Speed Wind Dir Waves Ship Positions

Waterman

Last reported at 2014-Jul-31 15:06 UTC. Time now 2014-Aug-01 07:47 UTC.
Position N 36°13' W 007°43'.

Length 26 m; draft 3.2 m.

Type: Tug. MMSI: 245128000.

Date/timePositionNaut miles runAvg speedWind from/ knotsBaromVisibWave heightAir tempDewpointWater temp
2014-Jul-31 15:06N 36°13' W 007°43'5 7.0
2014-Jul-31 14:20N 36°15' W 007°49'7 6.9
2014-Jul-31 13:22N 36°16' W 007°57'7 6.8
2014-Jul-31 12:21N 36°18' W 008°06'5 6.7
2014-Jul-31 11:32N 36°20' W 008°12'13 6.7
2014-Jul-31 09:33N 36°24' W 008°28'8 6.5
2014-Jul-31 08:21N 36°26' W 008°37'37 6.2
2014-Jul-31 02:26N 36°37' W 009°21'6 6.2
2014-Jul-31 01:29N 36°41' W 009°26'6 6.5
2014-Jul-31 00:29N 36°46' W 009°31'7 7.0
2014-Jul-30 23:25N 36°53' W 009°34'8 7.2
2014-Jul-30 22:22N 37°00' W 009°36'6 7.0
2014-Jul-30 21:29N 37°06' W 009°38'7 7.3
2014-Jul-30 20:30N 37°13' W 009°40'7 7.2
2014-Jul-30 19:33N 37°20' W 009°42'7 6.8
2014-Jul-30 18:32N 37°27' W 009°44'7 6.7
2014-Jul-30 17:33N 37°33' W 009°46'7 6.6
2014-Jul-30 16:31N 37°40' W 009°47'6 6.4
2014-Jul-30 15:33N 37°46' W 009°49'8 6.2
2014-Jul-30 14:13N 37°54' W 009°51'4 5.8
2014-Jul-30 13:32N 37°58' W 009°52'6 5.8
2014-Jul-30 12:33N 38°03' W 009°54'6 6.1
2014-Jul-30 11:33N 38°09' W 009°55'6 5.9
2014-Jul-30 10:33N 38°15' W 009°57'7 6.1
2014-Jul-30 09:29N 38°21' W 009°59'6 6.3
2014-Jul-30 08:34N 38°27' W 010°01'6 6.4
2014-Jul-30 07:33N 38°33' W 010°03'  
2014-Jul-22 07:14N 50°29' W 000°17'25 5.3
2014-Jul-22 02:33N 50°35' E 000°20'7 6.7
2014-Jul-22 01:33N 50°37' E 000°31'7 7.1
2014-Jul-22 00:33N 50°41' E 000°40'7 7.1
2014-Jul-21 23:34N 50°45' E 000°49'7 6.7
2014-Jul-21 22:33N 50°49' E 000°58'22 5.4
2014-Jul-21 18:30N 51°03' E 001°25'6 6.5
2014-Jul-21 17:34N 51°07' E 001°32'7 7.5
2014-Jul-21 16:34N 51°11' E 001°41'8 7.9
2014-Jul-21 15:33N 51°18' E 001°49'  
Track history (hours):
 
Tides and Currents Weather Stations Pressure Air Temp Water Temp Dewpoint Dewpoint Depression Visibility Wind Speed Wind Dir Waves Ship Positions

Waterman

Last reported at 2014-Jul-31 15:06 UTC. Time now 2014-Aug-01 07:47 UTC.
Position N 36°13' W 007°43'.

Length 26 m; draft 3.2 m.

Type: Tug. MMSI: 245128000.

Date/timePositionNaut miles runAvg speedWind from/ knotsBaromVisibWave heightAir tempDewpointWater temp
2014-Jul-31 15:06N 36°13' W 007°43'5 7.0
2014-Jul-31 14:20N 36°15' W 007°49'7 6.9
2014-Jul-31 13:22N 36°16' W 007°57'7 6.8
2014-Jul-31 12:21N 36°18' W 008°06'5 6.7
2014-Jul-31 11:32N 36°20' W 008°12'13 6.7
2014-Jul-31 09:33N 36°24' W 008°28'8 6.5
2014-Jul-31 08:21N 36°26' W 008°37'37 6.2
2014-Jul-31 02:26N 36°37' W 009°21'6 6.2
2014-Jul-31 01:29N 36°41' W 009°26'6 6.5
2014-Jul-31 00:29N 36°46' W 009°31'7 7.0
2014-Jul-30 23:25N 36°53' W 009°34'8 7.2
2014-Jul-30 22:22N 37°00' W 009°36'6 7.0
2014-Jul-30 21:29N 37°06' W 009°38'7 7.3
2014-Jul-30 20:30N 37°13' W 009°40'7 7.2
2014-Jul-30 19:33N 37°20' W 009°42'7 6.8
2014-Jul-30 18:32N 37°27' W 009°44'7 6.7
2014-Jul-30 17:33N 37°33' W 009°46'7 6.6
2014-Jul-30 16:31N 37°40' W 009°47'6 6.4
2014-Jul-30 15:33N 37°46' W 009°49'8 6.2
2014-Jul-30 14:13N 37°54' W 009°51'4 5.8
2014-Jul-30 13:32N 37°58' W 009°52'6 5.8
2014-Jul-30 12:33N 38°03' W 009°54'6 6.1
2014-Jul-30 11:33N 38°09' W 009°55'6 5.9
2014-Jul-30 10:33N 38°15' W 009°57'7 6.1
2014-Jul-30 09:29N 38°21' W 009°59'6 6.3
2014-Jul-30 08:34N 38°27' W 010°01'6 6.4
2014-Jul-30 07:33N 38°33' W 010°03'  
2014-Jul-22 07:14N 50°29' W 000°17'25 5.3
2014-Jul-22 02:33N 50°35' E 000°20'7 6.7
2014-Jul-22 01:33N 50°37' E 000°31'7 7.1
2014-Jul-22 00:33N 50°41' E 000°40'7 7.1
2014-Jul-21 23:34N 50°45' E 000°49'7 6.7
2014-Jul-21 22:33N 50°49' E 000°58'22 5.4
2014-Jul-21 18:30N 51°03' E 001°25'6 6.5
2014-Jul-21 17:34N 51°07' E 001°32'7 7.5
2014-Jul-21 16:34N 51°11' E 001°41'8 7.9
2014-Jul-21 15:33N 51°18' E 001°49'  

Dump ship's entire track history